createdAt,value
2017-10-31T00:01:09.401Z,16.10
2017-10-31T00:03:11.052Z,11.17
2017-10-31T00:05:13.419Z,19.53
2017-10-31T00:07:15.460Z,22.73
2017-10-31T00:09:18.865Z,16.07
2017-10-31T00:11:20.576Z,15.40
2017-10-31T00:13:22.051Z,10.57
2017-10-31T00:15:23.490Z,12.60
2017-10-31T00:17:25.302Z,17.97
2017-10-31T00:19:26.957Z,20.27
2017-10-31T00:21:28.276Z,18.43
2017-10-31T00:23:30.269Z,11.60
2017-10-31T00:25:31.440Z,15.77
2017-10-31T00:27:32.778Z,18.07
2017-10-31T00:29:34.241Z,15.83
2017-10-31T00:31:35.545Z,12.93
2017-10-31T00:33:36.953Z,18.43
2017-10-31T00:35:38.036Z,20.73
2017-10-31T00:37:40.243Z,7.27
2017-10-31T00:39:41.363Z,11.53
2017-10-31T00:41:43.013Z,17.07
2017-10-31T00:43:44.157Z,15.90
2017-10-31T00:45:45.969Z,22.20
2017-10-31T00:47:47.130Z,8.27
2017-10-31T00:49:48.154Z,15.57
2017-10-31T00:51:49.219Z,7.73
2017-10-31T00:53:50.190Z,11.63
2017-10-31T00:55:51.243Z,19.80
2017-10-31T00:57:52.290Z,16.70
2017-10-31T00:59:53.391Z,12.10
2017-10-31T01:01:54.511Z,9.77
2017-10-31T01:03:55.750Z,18.97
2017-10-31T01:05:56.961Z,14.03
2017-10-31T01:07:57.962Z,8.57
2017-10-31T01:09:59.468Z,13.47
2017-10-31T01:12:00.579Z,12.83
2017-10-31T01:14:01.968Z,17.03
2017-10-31T01:16:02.988Z,14.23
2017-10-31T01:18:04.021Z,14.60
2017-10-31T01:20:05.024Z,13.60
2017-10-31T01:22:06.137Z,6.27
2017-10-31T01:24:07.131Z,14.53
2017-10-31T01:26:08.217Z,16.40
2017-10-31T01:28:09.179Z,14.83
2017-10-31T01:30:10.384Z,16.33
2017-10-31T01:32:11.403Z,18.07
2017-10-31T01:34:12.429Z,14.43
2017-10-31T01:36:13.428Z,23.07
2017-10-31T01:38:15.231Z,21.73
2017-10-31T01:40:16.246Z,15.13
2017-10-31T01:42:17.288Z,35.23
2017-10-31T01:44:18.243Z,13.23
2017-10-31T01:46:19.329Z,14.40
2017-10-31T01:48:20.309Z,8.97
2017-10-31T01:50:21.491Z,16.27
2017-10-31T01:52:22.560Z,20.60
2017-10-31T01:54:23.605Z,12.03
2017-10-31T01:56:24.661Z,11.73
2017-10-31T01:58:25.620Z,19.47
2017-10-31T02:00:26.646Z,8.53
2017-10-31T02:02:27.645Z,12.10
2017-10-31T02:04:28.741Z,11.93
2017-10-31T02:06:29.743Z,8.60
2017-10-31T02:08:30.714Z,24.23
2017-10-31T02:10:31.769Z,21.27
2017-10-31T02:12:32.878Z,10.00
2017-10-31T02:14:33.984Z,16.80
2017-10-31T02:16:35.005Z,14.23
2017-10-31T02:18:36.012Z,14.00
2017-10-31T02:20:37.002Z,12.73
2017-10-31T02:22:38.074Z,12.47
2017-10-31T02:24:39.072Z,15.13
2017-10-31T02:26:40.164Z,22.13
2017-10-31T02:28:41.255Z,12.67
2017-10-31T02:30:42.257Z,18.80
2017-10-31T02:32:43.274Z,12.83
2017-10-31T02:34:45.085Z,12.00
2017-10-31T02:36:46.121Z,7.87
2017-10-31T02:38:59.252Z,10.43
2017-10-31T02:41:00.325Z,14.73
2017-10-31T02:43:01.322Z,19.30
2017-10-31T02:45:02.310Z,10.13
2017-10-31T02:47:03.300Z,18.57
2017-10-31T02:49:04.343Z,8.73
2017-10-31T02:51:05.389Z,15.33
2017-10-31T02:53:06.546Z,18.10
2017-10-31T02:55:07.549Z,16.10
2017-10-31T02:57:08.533Z,13.40
2017-10-31T02:59:09.555Z,12.07
2017-10-31T03:01:10.616Z,13.37
2017-10-31T03:03:11.668Z,11.70
2017-10-31T03:05:12.837Z,22.83
2017-10-31T03:07:13.872Z,10.23
2017-10-31T03:09:15.091Z,12.70
2017-10-31T03:11:16.061Z,14.10
2017-10-31T03:13:17.126Z,16.47
2017-10-31T03:15:18.200Z,10.83
2017-10-31T03:17:20.012Z,16.33
2017-10-31T03:19:21.110Z,18.87
2017-10-31T03:21:22.145Z,18.77
2017-10-31T03:23:23.228Z,22.73
2017-10-31T03:25:24.292Z,21.83
2017-10-31T03:27:25.622Z,21.50
2017-10-31T03:29:27.360Z,21.93
2017-10-31T03:31:28.775Z,16.47
2017-10-31T03:33:37.931Z,13.47
2017-10-31T03:35:39.172Z,14.90
2017-10-31T03:37:40.576Z,14.53
2017-10-31T03:39:41.721Z,11.00
2017-10-31T03:41:42.988Z,27.10
2017-10-31T03:43:44.509Z,13.17
2017-10-31T03:45:45.700Z,11.37
2017-10-31T03:47:46.756Z,10.50
2017-10-31T03:49:47.981Z,12.23
2017-10-31T03:51:49.043Z,7.87
2017-10-31T03:53:50.468Z,8.77
2017-10-31T03:55:51.620Z,14.63
2017-10-31T03:57:54.151Z,19.10
2017-10-31T04:00:01.251Z,15.13
2017-10-31T04:02:03.645Z,20.50
2017-10-31T04:04:10.553Z,14.00
2017-10-31T04:06:12.245Z,14.80
2017-10-31T04:08:13.639Z,10.03
2017-10-31T04:10:18.898Z,14.50
2017-10-31T04:12:20.396Z,12.60
2017-10-31T04:14:21.536Z,14.43
2017-10-31T04:16:22.658Z,19.53
2017-10-31T04:18:25.196Z,14.43
2017-10-31T04:20:27.760Z,12.13
2017-10-31T04:22:31.762Z,16.20
2017-10-31T04:26:48.507Z,11.60
2017-10-31T04:28:52.096Z,13.20
2017-10-31T04:30:53.435Z,15.37
2017-10-31T04:33:00.180Z,20.43
2017-10-31T04:35:02.697Z,13.80
2017-10-31T04:37:10.136Z,11.47
2017-10-31T04:39:11.774Z,10.80
2017-10-31T04:41:13.125Z,19.63
2017-10-31T04:43:17.525Z,15.37
2017-10-31T04:45:20.675Z,9.37
2017-10-31T04:47:22.673Z,14.37
2017-10-31T04:49:24.448Z,18.20
2017-10-31T04:51:25.963Z,12.97
2017-10-31T04:56:05.350Z,12.87
2017-10-31T04:58:08.509Z,24.20
2017-10-31T05:00:12.039Z,13.83
2017-10-31T05:04:29.733Z,16.43
2017-10-31T05:06:30.956Z,26.63
2017-10-31T05:08:32.709Z,11.20
2017-10-31T05:10:33.971Z,12.27
2017-10-31T05:12:35.179Z,12.20
2017-10-31T05:14:37.388Z,16.07
2017-10-31T05:16:38.471Z,10.33
2017-10-31T05:18:39.529Z,9.33
2017-10-31T05:20:40.504Z,16.20
2017-10-31T05:22:41.494Z,13.40
2017-10-31T05:24:42.482Z,16.23
2017-10-31T05:26:43.536Z,18.07
2017-10-31T05:28:44.520Z,11.50
2017-10-31T05:30:45.533Z,7.50
2017-10-31T05:32:46.564Z,7.57
2017-10-31T05:34:47.597Z,20.53
2017-10-31T05:36:48.687Z,13.43
2017-10-31T05:38:49.715Z,13.03
2017-10-31T05:40:50.745Z,8.40
2017-10-31T05:43:05.692Z,7.77
2017-10-31T05:45:06.886Z,16.80
2017-10-31T05:47:07.984Z,7.97
2017-10-31T05:49:08.985Z,12.23
2017-10-31T05:51:10.022Z,13.07
2017-10-31T05:53:11.002Z,10.53
2017-10-31T05:55:12.093Z,12.25
2017-10-31T05:57:13.308Z,21.37
2017-10-31T05:59:14.414Z,10.43
2017-10-31T06:01:15.451Z,11.30
2017-10-31T06:03:16.514Z,9.27
2017-10-31T06:05:17.505Z,19.00
2017-10-31T06:07:18.475Z,16.20
2017-10-31T06:09:19.520Z,17.90
2017-10-31T06:11:20.525Z,10.20
2017-10-31T06:13:21.520Z,13.33
2017-10-31T06:15:22.619Z,8.60
2017-10-31T06:17:23.661Z,11.63
2017-10-31T06:19:24.704Z,8.50
2017-10-31T06:21:25.829Z,10.87
2017-10-31T06:23:32.812Z,13.20
2017-10-31T06:25:39.784Z,15.10
2017-10-31T06:27:46.861Z,8.40
2017-10-31T06:29:53.866Z,26.17
2017-10-31T06:32:00.866Z,15.33
2017-10-31T06:34:01.830Z,6.33
2017-10-31T06:36:03.017Z,9.63
2017-10-31T06:38:04.230Z,11.80
2017-10-31T06:40:05.794Z,13.17
2017-10-31T06:42:07.145Z,10.30
2017-10-31T06:44:08.405Z,22.00
2017-10-31T06:46:09.629Z,14.43
2017-10-31T06:50:25.880Z,11.37
2017-10-31T06:52:26.920Z,9.70
2017-10-31T06:54:27.956Z,6.43
2017-10-31T06:56:29.078Z,20.63
2017-10-31T06:58:30.057Z,13.47
2017-10-31T07:00:31.120Z,7.30
2017-10-31T07:02:32.149Z,12.20
2017-10-31T07:04:33.286Z,11.50
2017-10-31T07:06:34.337Z,18.13
2017-10-31T07:08:35.302Z,15.57
2017-10-31T07:10:36.400Z,14.50
2017-10-31T07:12:37.373Z,10.60
2017-10-31T07:14:38.378Z,20.43
2017-10-31T07:16:39.392Z,9.17
2017-10-31T07:18:40.637Z,9.30
2017-10-31T07:20:41.639Z,13.50
2017-10-31T07:22:44.363Z,11.83
2017-10-31T07:24:45.989Z,9.30
2017-10-31T07:26:47.831Z,4.90
2017-10-31T07:28:48.894Z,13.83
2017-10-31T07:30:49.892Z,14.50
2017-10-31T07:32:50.962Z,11.10
2017-10-31T07:34:51.986Z,5.83
2017-10-31T07:36:52.969Z,19.97
2017-10-31T07:38:54.388Z,15.17
2017-10-31T07:40:55.459Z,15.30
2017-10-31T07:42:56.445Z,6.50
2017-10-31T07:44:57.838Z,10.90
2017-10-31T07:46:58.852Z,12.37
2017-10-31T07:48:59.892Z,10.37
2017-10-31T07:51:00.962Z,13.43
2017-10-31T07:53:01.948Z,10.37
2017-10-31T07:55:03.382Z,10.30
2017-10-31T07:57:04.354Z,11.30
2017-10-31T07:59:05.441Z,8.57
2017-10-31T08:01:06.434Z,15.20
2017-10-31T08:03:07.571Z,6.63
2017-10-31T08:05:08.659Z,19.07
2017-10-31T08:07:09.767Z,16.23
2017-10-31T08:09:10.761Z,10.33
2017-10-31T08:11:11.724Z,12.83
2017-10-31T08:13:12.780Z,18.73
2017-10-31T08:15:13.812Z,22.20
2017-10-31T08:17:14.866Z,11.20
2017-10-31T08:19:15.841Z,16.50
2017-10-31T08:21:16.868Z,17.07
2017-10-31T08:23:17.897Z,9.77
2017-10-31T08:25:19.163Z,13.77
2017-10-31T08:27:20.162Z,8.73
2017-10-31T08:29:21.188Z,15.27
2017-10-31T08:31:22.186Z,18.43
2017-10-31T08:33:23.213Z,19.50
2017-10-31T08:35:24.292Z,13.93
2017-10-31T08:37:25.288Z,21.50
2017-10-31T08:39:26.280Z,12.00
2017-10-31T08:41:27.293Z,14.43
2017-10-31T08:43:28.610Z,15.23
2017-10-31T08:45:29.618Z,21.77
2017-10-31T08:47:30.648Z,9.10
2017-10-31T08:49:35.681Z,17.80
2017-10-31T08:51:36.791Z,21.10
2017-10-31T08:53:37.807Z,13.30
2017-10-31T08:55:38.803Z,11.70
2017-10-31T08:57:39.825Z,13.00
2017-10-31T08:59:40.843Z,11.70
2017-10-31T09:01:41.808Z,27.03
2017-10-31T09:03:42.814Z,16.33
2017-10-31T09:05:43.773Z,14.00
2017-10-31T09:07:45.084Z,14.97
2017-10-31T09:09:46.109Z,13.30
2017-10-31T09:11:47.107Z,12.60
2017-10-31T09:13:49.073Z,27.97
2017-10-31T09:15:50.147Z,12.57
2017-10-31T09:17:51.146Z,16.93
2017-10-31T09:19:52.155Z,23.03
2017-10-31T09:21:53.109Z,10.37
2017-10-31T09:23:54.098Z,14.20
2017-10-31T09:25:55.134Z,11.67
2017-10-31T09:27:56.130Z,15.30
2017-10-31T09:30:04.693Z,11.73
2017-10-31T09:32:05.656Z,8.27
2017-10-31T09:34:06.646Z,12.80
2017-10-31T09:36:08.297Z,10.63
2017-10-31T09:38:10.588Z,10.13
2017-10-31T09:40:11.600Z,9.90
2017-10-31T09:42:12.593Z,13.00
2017-10-31T09:44:13.588Z,9.97
2017-10-31T09:46:14.611Z,20.05
2017-10-31T09:48:16.852Z,15.90
2017-10-31T09:50:17.828Z,13.00
2017-10-31T09:52:18.827Z,12.67
2017-10-31T09:54:19.816Z,17.73
2017-10-31T09:56:20.777Z,14.00
2017-10-31T09:58:21.753Z,11.77
2017-10-31T10:00:22.752Z,16.83
2017-10-31T10:02:23.753Z,12.63
2017-10-31T10:04:24.803Z,10.23
2017-10-31T10:06:25.786Z,12.17
2017-10-31T10:08:26.830Z,18.87
2017-10-31T10:10:27.833Z,13.60
2017-10-31T10:12:28.782Z,11.13
2017-10-31T10:14:29.827Z,20.00
2017-10-31T10:16:32.203Z,12.83
2017-10-31T10:18:33.347Z,8.50
2017-10-31T10:20:34.371Z,17.30
2017-10-31T10:22:35.433Z,15.43
2017-10-31T10:24:36.562Z,11.80
2017-10-31T10:26:37.644Z,20.70
2017-10-31T10:28:38.735Z,10.37
2017-10-31T10:30:39.725Z,14.33
2017-10-31T10:32:40.771Z,17.07
2017-10-31T10:34:41.747Z,11.97
2017-10-31T10:36:42.837Z,15.20
2017-10-31T10:38:43.823Z,12.67
2017-10-31T10:40:44.919Z,14.50
2017-10-31T10:42:48.260Z,14.27
2017-10-31T10:44:49.495Z,15.50
2017-10-31T10:46:50.716Z,20.50
2017-10-31T10:48:53.115Z,17.33
2017-10-31T10:51:14.413Z,17.83
2017-10-31T10:53:15.538Z,19.03
2017-10-31T10:55:18.289Z,17.63
2017-10-31T10:57:19.448Z,11.20
2017-10-31T10:59:20.622Z,20.97
2017-10-31T11:01:22.111Z,13.27
2017-10-31T11:03:23.296Z,12.50
2017-10-31T11:05:24.457Z,15.50
2017-10-31T11:07:25.883Z,14.60
2017-10-31T11:12:04.000Z,14.53
2017-10-31T11:14:05.097Z,14.80
2017-10-31T11:16:06.195Z,17.80
2017-10-31T11:18:07.213Z,19.00
2017-10-31T11:20:08.273Z,14.83
2017-10-31T11:22:09.305Z,17.27
2017-10-31T11:24:10.285Z,15.13
2017-10-31T11:26:11.386Z,14.83
2017-10-31T11:28:12.374Z,17.40
2017-10-31T11:30:13.432Z,18.37
2017-10-31T11:32:14.734Z,17.87
2017-10-31T11:34:15.844Z,20.73
2017-10-31T11:36:16.873Z,20.33
2017-10-31T11:38:17.957Z,16.60
2017-10-31T11:40:19.079Z,13.10
2017-10-31T11:42:20.105Z,14.33
2017-10-31T11:44:21.216Z,19.30
2017-10-31T11:46:22.185Z,24.57
2017-10-31T11:48:23.308Z,12.70
2017-10-31T11:50:31.831Z,14.70
2017-10-31T11:52:33.204Z,19.67
2017-10-31T11:57:36.539Z,18.30
2017-10-31T12:02:06.507Z,14.63
2017-10-31T12:09:22.667Z,18.33
2017-10-31T12:14:08.157Z,14.40
2017-10-31T12:16:34.276Z,12.60
2017-10-31T12:18:35.289Z,15.30
2017-10-31T12:20:36.268Z,12.90
2017-10-31T12:22:37.319Z,16.93
2017-10-31T12:24:39.296Z,15.80
2017-10-31T12:26:40.473Z,15.37
2017-10-31T12:28:41.596Z,13.73
2017-10-31T12:30:49.565Z,21.90
2017-10-31T12:35:27.307Z,17.07
2017-10-31T12:37:28.384Z,17.77
2017-10-31T12:39:29.413Z,24.10
2017-10-31T12:41:47.593Z,18.73
2017-10-31T12:43:48.597Z,19.90
2017-10-31T12:45:49.763Z,20.90
2017-10-31T12:47:50.867Z,18.33
2017-10-31T12:49:51.862Z,17.50
2017-10-31T12:51:52.879Z,19.20
2017-10-31T12:53:54.004Z,29.23
2017-10-31T12:55:55.018Z,21.83
2017-10-31T12:57:56.051Z,23.40
2017-10-31T12:59:57.254Z,25.73
2017-10-31T13:01:58.351Z,22.07
2017-10-31T13:03:59.418Z,24.43
2017-10-31T13:06:00.443Z,27.13
2017-10-31T13:08:01.456Z,25.00
2017-10-31T13:10:02.969Z,19.97
2017-10-31T13:12:18.913Z,27.33
2017-10-31T13:14:19.954Z,25.43
2017-10-31T13:16:22.626Z,19.40
2017-10-31T13:21:01.087Z,21.83
2017-10-31T13:23:02.308Z,24.10
2017-10-31T13:25:03.421Z,21.70
2017-10-31T13:27:04.849Z,23.77
2017-10-31T13:29:06.522Z,25.90
2017-10-31T13:31:08.731Z,23.07
2017-10-31T13:33:17.248Z,17.17
2017-10-31T13:38:11.641Z,30.07
2017-10-31T13:40:16.607Z,24.90
2017-10-31T13:42:18.570Z,22.00
2017-10-31T13:44:20.149Z,18.83
2017-10-31T13:46:21.242Z,19.03
2017-10-31T13:48:23.047Z,23.20
2017-10-31T13:50:24.127Z,18.40
2017-10-31T13:52:25.324Z,25.80
2017-10-31T13:54:33.444Z,13.17
2017-10-31T14:22:45.772Z,20.93
2017-10-31T14:24:46.787Z,15.93
2017-10-31T14:26:47.769Z,19.37
2017-10-31T14:28:48.815Z,27.27
2017-10-31T14:30:49.871Z,21.03
2017-10-31T14:32:50.884Z,25.33
2017-10-31T14:35:15.921Z,20.93
2017-10-31T14:37:17.421Z,23.07
2017-10-31T14:39:18.670Z,24.50
2017-10-31T14:41:22.808Z,20.90
2017-10-31T14:43:24.036Z,21.67
2017-10-31T14:45:26.286Z,25.80
2017-10-31T14:47:27.654Z,25.60
2017-10-31T14:49:29.133Z,23.40
2017-10-31T14:51:33.082Z,23.00
2017-10-31T14:53:40.443Z,20.80
2017-10-31T14:55:41.785Z,21.40
2017-10-31T14:57:43.254Z,31.53
2017-10-31T15:02:21.782Z,28.30
2017-10-31T15:04:22.844Z,24.50
2017-10-31T15:09:03.515Z,34.70
2017-10-31T15:11:10.888Z,24.53
2017-10-31T15:13:12.414Z,24.30
2017-10-31T15:20:29.049Z,30.33
2017-10-31T15:22:37.241Z,26.43
2017-10-31T15:24:38.595Z,29.77
2017-10-31T15:26:42.367Z,30.13
2017-10-31T15:28:44.025Z,29.63
2017-10-31T15:30:45.606Z,39.67
2017-10-31T15:32:47.033Z,25.70
2017-10-31T15:34:48.695Z,34.63
2017-10-31T15:36:49.861Z,36.17
2017-10-31T15:38:52.303Z,28.20
2017-10-31T15:40:54.628Z,27.10
2017-10-31T15:42:55.829Z,27.87
2017-10-31T15:44:57.959Z,30.43
2017-10-31T15:47:06.688Z,34.03
2017-10-31T15:51:45.294Z,34.67
2017-10-31T15:53:46.417Z,37.23
2017-10-31T16:00:28.640Z,31.13
2017-10-31T16:02:30.102Z,31.23
2017-10-31T16:04:31.195Z,32.97
2017-10-31T16:06:32.533Z,36.70
2017-10-31T16:08:43.335Z,45.13
2017-10-31T16:10:44.414Z,30.47
2017-10-31T16:12:45.414Z,38.60
2017-10-31T16:14:46.731Z,30.07
2017-10-31T16:32:56.071Z,31.90
2017-10-31T16:34:57.688Z,34.00
2017-10-31T16:36:59.341Z,32.80
2017-10-31T16:39:01.073Z,37.37
2017-10-31T16:41:03.822Z,34.90
2017-10-31T16:43:06.509Z,33.53
2017-10-31T16:45:08.849Z,38.03
2017-10-31T16:47:09.957Z,35.63
2017-10-31T16:49:11.268Z,34.93
2017-10-31T16:51:13.894Z,39.33
2017-10-31T16:53:16.487Z,38.23
2017-10-31T16:55:17.506Z,36.30
2017-10-31T16:57:21.484Z,42.70
2017-10-31T16:59:22.533Z,46.00
2017-10-31T17:01:24.757Z,32.10
2017-10-31T17:03:26.296Z,42.20
2017-10-31T17:05:29.001Z,29.77
2017-10-31T17:07:30.178Z,32.93
2017-10-31T17:09:31.194Z,38.10
2017-10-31T17:11:32.220Z,31.60
2017-10-31T17:13:33.999Z,31.17
2017-10-31T17:15:37.811Z,39.13
2017-10-31T17:17:39.047Z,33.53
2017-10-31T17:19:40.112Z,40.70
2017-10-31T17:21:42.558Z,38.13
2017-10-31T17:23:44.006Z,40.67
2017-10-31T17:25:45.617Z,36.70
2017-10-31T17:27:46.840Z,34.67
2017-10-31T17:29:49.981Z,37.33
2017-10-31T17:31:52.577Z,34.73
2017-10-31T17:33:53.998Z,38.63
2017-10-31T17:35:55.704Z,35.73
2017-10-31T17:37:57.245Z,40.60
2017-10-31T17:39:59.043Z,37.17
2017-10-31T17:42:02.545Z,27.63
2017-10-31T17:44:03.893Z,40.40
2017-10-31T17:46:04.988Z,36.23
2017-10-31T17:48:07.948Z,30.37
2017-10-31T17:50:09.025Z,43.10
2017-10-31T17:52:10.392Z,35.67
2017-10-31T17:54:12.466Z,44.67
2017-10-31T17:56:15.336Z,33.03
2017-10-31T17:58:18.055Z,34.70
2017-10-31T18:00:19.165Z,35.97
2017-10-31T18:02:20.475Z,33.30
2017-10-31T18:04:21.804Z,40.40
2017-10-31T18:06:24.583Z,37.30
2017-10-31T18:08:25.681Z,36.83
2017-10-31T18:10:27.842Z,40.77
2017-10-31T18:12:29.016Z,33.70
2017-10-31T18:14:30.130Z,35.73
2017-10-31T18:16:31.186Z,56.43
2017-10-31T18:18:33.260Z,38.97
2017-10-31T18:20:34.428Z,42.77
2017-10-31T18:22:44.543Z,33.17
2017-10-31T18:24:46.552Z,30.37
2017-10-31T18:26:47.636Z,36.60
2017-10-31T18:28:48.732Z,35.13
2017-10-31T18:38:43.892Z,43.83
2017-10-31T18:40:44.871Z,45.10
2017-10-31T18:42:45.860Z,36.73
2017-10-31T18:44:46.847Z,41.00
2017-10-31T18:46:47.849Z,33.30
2017-10-31T18:48:48.835Z,35.37
2017-10-31T18:50:49.800Z,50.37
2017-10-31T18:52:51.598Z,32.53
2017-10-31T18:54:52.601Z,44.90
2017-10-31T18:56:54.349Z,44.20
2017-10-31T18:58:55.418Z,43.23
2017-10-31T19:00:56.494Z,40.43
2017-10-31T19:02:57.545Z,39.00
2017-10-31T19:04:58.591Z,42.73
2017-10-31T19:06:59.645Z,47.63
2017-10-31T19:09:00.778Z,47.00
2017-10-31T19:11:01.771Z,38.23
2017-10-31T19:13:03.005Z,37.23
2017-10-31T19:15:06.249Z,33.13
2017-10-31T19:17:07.296Z,42.30
2017-10-31T19:19:08.323Z,46.23
2017-10-31T19:21:09.328Z,43.80
2017-10-31T19:23:10.330Z,35.63
2017-10-31T19:25:11.398Z,34.77
2017-10-31T19:27:13.184Z,41.40
2017-10-31T19:29:14.162Z,38.73
2017-10-31T19:31:15.169Z,33.20
2017-10-31T19:33:16.144Z,31.57
2017-10-31T19:35:17.375Z,33.17
2017-10-31T19:37:18.413Z,31.00
2017-10-31T19:39:19.477Z,35.70
2017-10-31T19:41:20.486Z,45.12
2017-10-31T19:43:21.485Z,32.90
2017-10-31T19:45:22.760Z,33.80
2017-10-31T19:47:23.837Z,40.97
2017-10-31T19:49:25.749Z,29.00
2017-10-31T19:51:26.928Z,31.10
2017-10-31T19:53:28.060Z,38.50
2017-10-31T19:55:29.097Z,33.87
2017-10-31T19:57:30.235Z,38.63
2017-10-31T19:59:31.306Z,42.77
2017-10-31T20:01:32.312Z,33.60
2017-10-31T20:03:34.380Z,41.93
2017-10-31T20:05:36.127Z,34.30
2017-10-31T20:07:37.575Z,47.87
2017-10-31T20:09:38.713Z,37.83
2017-10-31T20:11:39.752Z,37.20
2017-10-31T20:13:40.768Z,36.20
2017-10-31T20:15:42.218Z,41.80
2017-10-31T20:17:43.392Z,39.07
2017-10-31T20:19:44.374Z,35.00
2017-10-31T20:21:45.641Z,38.63
2017-10-31T20:23:46.828Z,42.33
2017-10-31T20:25:47.820Z,32.13
2017-10-31T20:27:48.867Z,45.77
2017-10-31T20:29:49.900Z,40.63
2017-10-31T20:31:51.001Z,37.37
2017-10-31T20:33:52.726Z,45.10
2017-10-31T20:35:53.743Z,37.47
2017-10-31T20:37:55.184Z,48.07
2017-10-31T20:39:56.275Z,41.40
2017-10-31T20:41:57.265Z,45.33
2017-10-31T20:43:59.038Z,50.43
2017-10-31T20:46:00.047Z,44.73
2017-10-31T20:48:01.214Z,45.60
2017-10-31T20:50:03.034Z,47.37
2017-10-31T20:52:04.051Z,61.67
2017-10-31T20:54:05.220Z,46.90
2017-10-31T20:56:06.290Z,52.83
2017-10-31T20:58:07.461Z,45.40
2017-10-31T21:00:08.620Z,51.60
2017-10-31T21:02:09.692Z,44.37
2017-10-31T21:04:10.767Z,43.07
2017-10-31T21:06:11.862Z,47.10
2017-10-31T21:08:13.156Z,46.80
2017-10-31T21:10:14.167Z,48.87
2017-10-31T21:12:15.195Z,46.93
2017-10-31T21:14:16.181Z,44.60
2017-10-31T21:16:17.901Z,41.60
2017-10-31T21:18:18.899Z,42.50
2017-10-31T21:20:19.872Z,42.87
2017-10-31T21:22:20.861Z,46.87
2017-10-31T21:24:21.882Z,48.70
2017-10-31T21:26:22.856Z,40.90
2017-10-31T21:28:23.841Z,51.07
2017-10-31T21:30:24.829Z,46.33
2017-10-31T21:32:25.826Z,48.90
2017-10-31T21:34:26.809Z,59.57
2017-10-31T21:36:27.823Z,53.87
2017-10-31T21:38:28.865Z,50.97
2017-10-31T21:40:30.640Z,46.27
2017-10-31T21:42:31.653Z,43.93
2017-10-31T21:44:32.652Z,46.17
2017-10-31T21:46:33.647Z,47.97
2017-10-31T21:48:35.373Z,42.97
2017-10-31T21:50:36.333Z,47.67
2017-10-31T21:52:37.349Z,44.33
2017-10-31T21:54:38.352Z,54.40
2017-10-31T21:56:40.056Z,47.23
2017-10-31T21:58:41.058Z,44.50
2017-10-31T22:00:42.072Z,50.73
2017-10-31T22:02:43.122Z,45.37
2017-10-31T22:04:44.149Z,48.13
2017-10-31T22:06:45.120Z,50.73
2017-10-31T22:08:46.105Z,40.27
2017-10-31T22:10:47.804Z,47.67
2017-10-31T22:12:48.781Z,40.30
2017-10-31T22:14:49.764Z,41.70
2017-10-31T22:16:51.492Z,40.33
2017-10-31T22:18:52.536Z,46.23
2017-10-31T22:20:53.531Z,45.20
2017-10-31T22:22:54.496Z,51.97
2017-10-31T22:24:55.477Z,47.77
2017-10-31T22:26:56.541Z,51.75
2017-10-31T22:28:57.581Z,48.07
2017-10-31T22:30:58.600Z,38.60
2017-10-31T22:32:59.633Z,34.57
2017-10-31T22:35:00.690Z,40.07
2017-10-31T22:37:01.677Z,32.00
2017-10-31T22:39:02.674Z,34.37
2017-10-31T22:41:03.654Z,42.17
2017-10-31T22:43:04.637Z,37.40
2017-10-31T22:45:06.369Z,33.00
2017-10-31T22:47:07.338Z,33.40
2017-10-31T22:49:08.296Z,35.50
2017-10-31T22:51:10.053Z,31.43
2017-10-31T22:53:11.812Z,39.43
2017-10-31T22:55:13.542Z,30.43
2017-10-31T22:57:14.547Z,41.33
2017-10-31T22:59:16.402Z,36.73
2017-10-31T23:01:18.221Z,42.87
2017-10-31T23:03:19.202Z,33.13
2017-10-31T23:05:20.261Z,36.27
2017-10-31T23:07:22.008Z,35.57
2017-10-31T23:09:23.029Z,36.00
2017-10-31T23:11:24.042Z,41.93
2017-10-31T23:13:25.082Z,41.10
2017-10-31T23:15:26.090Z,37.50
2017-10-31T23:17:27.104Z,40.87
2017-10-31T23:19:28.132Z,36.27
2017-10-31T23:21:29.159Z,41.33
2017-10-31T23:23:30.902Z,34.97
2017-10-31T23:25:31.857Z,38.53
2017-10-31T23:27:32.857Z,43.80
2017-10-31T23:29:33.870Z,44.67
2017-10-31T23:31:34.878Z,34.23
2017-10-31T23:33:35.883Z,39.87
2017-10-31T23:35:36.868Z,42.27
2017-10-31T23:37:37.881Z,49.80
2017-10-31T23:39:38.881Z,43.03
2017-10-31T23:41:39.925Z,48.43
2017-10-31T23:43:40.936Z,45.83
2017-10-31T23:45:41.908Z,46.27
2017-10-31T23:47:42.906Z,56.93
2017-10-31T23:49:43.870Z,59.83
2017-10-31T23:51:44.877Z,46.57
2017-10-31T23:53:46.620Z,49.03
2017-10-31T23:55:47.620Z,47.27
2017-10-31T23:57:48.597Z,50.07
2017-10-31T23:59:49.606Z,48.77
